Time;durP1;ratioP1;P1;durP2;ratioP2;P2;SDS_P1;SDS_P2;PMS_P1;PMS_P2;Temp;Humidity;BMP_temperature;BMP_pressure;BME280_temperature;BME280_humidity;BME280_pressure;Samples;Min_cycle;Max_cycle;Signal;HPM_P1;HPM_P2
2021/10/23 00:02:05;;;;;;;8.23;2.13;;;;;;;6.49;85.88;101916.78;5009652;28;20199;-72
2021/10/23 00:04:31;;;;;;;10.00;2.17;;;;;;;6.47;86.80;101924.31;5009144;28;20203;-71
2021/10/23 00:06:56;;;;;;;9.37;1.77;;;;;;;6.46;85.87;101919.16;5010875;28;20198;-71
2021/10/23 00:09:22;;;;;;;8.37;1.80;;;;;;;6.50;86.67;101921.91;5011474;28;20302;-71
2021/10/23 00:11:47;;;;;;;7.73;1.70;;;;;;;6.49;86.37;101924.41;5011362;28;20187;-71
2021/10/23 00:14:13;;;;;;;11.30;2.83;;;;;;;6.47;86.03;101925.97;5009158;28;20247;-71
2021/10/23 00:16:39;;;;;;;8.90;2.03;;;;;;;6.44;85.61;101933.47;5009249;28;20187;-72
2021/10/23 00:19:05;;;;;;;10.47;2.27;;;;;;;6.42;86.10;101932.50;5009528;28;20277;-72
2021/10/23 00:21:30;;;;;;;9.47;1.87;;;;;;;6.37;86.55;101937.34;5010683;28;20187;-72
2021/10/23 00:23:56;;;;;;;12.33;2.03;;;;;;;6.35;85.09;101944.00;5009579;28;20207;-70
2021/10/23 00:26:21;;;;;;;9.43;1.93;;;;;;;6.30;86.38;101940.34;5010206;28;20733;-72
2021/10/23 00:28:46;;;;;;;8.93;2.30;;;;;;;6.26;86.50;101940.97;5009219;28;20273;-72
2021/10/23 00:31:12;;;;;;;10.13;2.20;;;;;;;6.24;86.24;101934.06;5008767;28;20293;-71
2021/10/23 00:33:38;;;;;;;10.50;2.30;;;;;;;6.23;86.75;101932.31;5008505;28;20594;-70
2021/10/23 00:36:04;;;;;;;9.87;2.50;;;;;;;6.20;86.67;101933.03;5010231;28;20274;-72
2021/10/23 00:38:29;;;;;;;12.23;2.77;;;;;;;6.16;86.84;101940.38;5010408;28;20306;-71
2021/10/23 00:40:54;;;;;;;10.43;2.27;;;;;;;6.18;86.32;101939.66;5010093;28;20214;-71
2021/10/23 00:43:20;;;;;;;11.73;2.33;;;;;;;6.21;86.13;101936.47;5010178;28;20203;-71
2021/10/23 00:45:46;;;;;;;8.93;2.07;;;;;;;6.21;86.37;101941.53;5008823;28;20669;-71
2021/10/23 00:48:11;;;;;;;6.33;1.70;;;;;;;6.17;86.25;101955.72;5009852;28;20186;-71
2021/10/23 00:50:37;;;;;;;8.03;1.93;;;;;;;6.22;86.21;101949.22;5010284;28;20653;-71
2021/10/23 00:53:03;;;;;;;12.67;1.83;;;;;;;6.15;86.66;101959.88;5009088;28;20614;-71
2021/10/23 00:55:28;;;;;;;8.27;1.90;;;;;;;6.23;86.81;101951.00;5010251;28;20676;-70
2021/10/23 00:57:54;;;;;;;9.77;1.57;;;;;;;6.23;86.42;101940.84;5008975;28;20233;-71
2021/10/23 01:00:19;;;;;;;12.07;2.07;;;;;;;6.26;86.03;101945.19;5009264;28;20210;-71
2021/10/23 01:02:44;;;;;;;13.53;1.70;;;;;;;6.26;86.21;101966.41;5009477;28;20803;-70
2021/10/23 01:05:10;;;;;;;10.17;1.67;;;;;;;6.33;86.44;101973.59;5008811;28;20587;-71
2021/10/23 01:07:36;;;;;;;10.33;2.33;;;;;;;6.40;86.49;101974.78;5004797;28;20636;-72
2021/10/23 01:10:07;;;;;;;8.23;1.70;;;;;;;6.39;86.23;101980.66;5010139;28;20660;-71
2021/10/23 01:12:34;;;;;;;13.13;1.93;;;;;;;6.39;87.08;101983.19;5008958;28;20253;-72
2021/10/23 01:15:14;;;;;;;7.00;1.73;;;;;;;6.41;87.02;101979.94;5008908;28;20595;-71
2021/10/23 01:17:39;;;;;;;9.17;2.20;;;;;;;6.47;86.81;101987.03;5009488;28;20203;-72
2021/10/23 01:20:06;;;;;;;7.50;1.40;;;;;;;6.47;86.43;101981.94;5009644;28;20318;-72
2021/10/23 01:22:31;;;;;;;11.80;2.20;;;;;;;6.46;86.83;101988.72;5009930;28;20179;-71
2021/10/23 01:24:56;;;;;;;9.67;1.80;;;;;;;6.43;87.13;101992.75;5008978;28;20286;-71
2021/10/23 01:27:22;;;;;;;8.10;1.53;;;;;;;6.41;86.32;101989.25;5007952;28;20211;-71
2021/10/23 01:29:47;;;;;;;13.07;1.63;;;;;;;6.43;86.38;101993.63;5009594;28;20791;-71
2021/10/23 01:32:13;;;;;;;9.23;1.90;;;;;;;6.40;87.52;101992.59;5009108;28;20197;-72
2021/10/23 01:34:38;;;;;;;14.43;2.63;;;;;;;6.37;86.89;102007.69;5008746;28;20728;-71
2021/10/23 01:37:03;;;;;;;9.07;2.60;;;;;;;6.35;87.31;102014.38;5005981;28;20199;-72
2021/10/23 01:39:33;;;;;;;8.57;2.30;;;;;;;6.34;87.74;102015.13;5008597;28;20266;-72
2021/10/23 01:41:58;;;;;;;11.17;2.10;;;;;;;6.37;87.47;102025.50;5008450;28;20202;-72
2021/10/23 01:44:26;;;;;;;10.67;2.50;;;;;;;6.43;86.94;102029.25;5008647;28;20683;-73
2021/10/23 01:46:52;;;;;;;9.03;1.80;;;;;;;6.51;86.89;102042.38;5009458;28;20914;-71
2021/10/23 01:49:17;;;;;;;9.03;2.30;;;;;;;6.58;87.46;102047.88;5008972;28;20278;-70
2021/10/23 01:51:42;;;;;;;7.67;1.63;;;;;;;6.63;86.87;102041.38;5009552;28;20718;-71
2021/10/23 01:54:10;;;;;;;7.23;1.63;;;;;;;6.66;87.55;102044.09;5008662;28;20203;-71
2021/10/23 01:56:37;;;;;;;7.20;1.57;;;;;;;6.68;86.85;102056.91;5007185;28;20206;-71
2021/10/23 01:59:03;;;;;;;10.13;2.07;;;;;;;6.68;86.50;102045.03;5007538;28;20214;-71
2021/10/23 02:01:28;;;;;;;7.27;1.67;;;;;;;6.69;86.04;102040.84;5008172;28;20569;-72
2021/10/23 02:03:53;;;;;;;11.27;1.90;;;;;;;6.68;86.18;102046.72;5007965;28;20943;-72
2021/10/23 02:06:20;;;;;;;8.50;1.83;;;;;;;6.63;86.92;102049.00;5007432;28;20205;-70
2021/10/23 02:08:45;;;;;;;15.47;2.30;;;;;;;6.62;86.53;102046.38;5008538;28;20188;-72
2021/10/23 02:11:11;;;;;;;8.40;1.93;;;;;;;6.63;87.17;102043.91;5009295;28;20553;-71
2021/10/23 02:13:36;;;;;;;8.03;1.60;;;;;;;6.66;86.02;102061.91;5008415;28;20219;-70
2021/10/23 02:16:02;;;;;;;7.37;1.63;;;;;;;6.68;87.24;102064.53;5007765;28;20191;-71
2021/10/23 02:18:27;;;;;;;8.87;1.77;;;;;;;6.68;86.20;102070.47;5007375;28;20225;-71
2021/10/23 02:20:54;;;;;;;9.63;1.80;;;;;;;6.72;86.23;102061.38;5009290;28;20199;-72
2021/10/23 02:23:19;;;;;;;9.83;1.70;;;;;;;6.73;86.16;102063.97;5008540;28;20307;-71
2021/10/23 02:25:45;;;;;;;8.07;1.80;;;;;;;6.70;87.03;102066.38;5008821;28;20215;-71
2021/10/23 02:28:10;;;;;;;10.47;1.80;;;;;;;6.70;86.82;102068.91;5012977;28;20194;-72
2021/10/23 02:30:35;;;;;;;10.87;1.90;;;;;;;6.69;85.90;102079.91;5011779;28;20198;-71
2021/10/23 02:33:01;;;;;;;10.00;2.30;;;;;;;6.69;86.58;102076.47;5012418;28;20238;-73
2021/10/23 02:35:26;;;;;;;9.67;2.33;;;;;;;6.67;85.95;102080.56;5008999;28;20195;-71
2021/10/23 02:37:51;;;;;;;12.73;2.10;;;;;;;6.62;85.86;102072.69;5011510;28;20215;-72
2021/10/23 02:40:17;;;;;;;12.70;1.80;;;;;;;6.61;86.44;102081.13;5012158;28;20211;-72
2021/10/23 02:42:42;;;;;;;16.43;2.20;;;;;;;6.61;86.23;102083.69;5012505;28;20644;-71
2021/10/23 02:45:09;;;;;;;13.80;2.47;;;;;;;6.64;85.95;102095.69;5012797;28;20241;-72
2021/10/23 02:47:36;;;;;;;10.10;2.40;;;;;;;6.65;85.63;102090.69;5012439;28;20187;-71
2021/10/23 02:50:04;;;;;;;9.43;2.50;;;;;;;6.64;86.25;102091.47;5011153;28;20195;-71
2021/10/23 02:52:29;;;;;;;9.37;2.00;;;;;;;6.65;85.13;102085.59;5009728;28;20199;-70
2021/10/23 02:54:54;;;;;;;11.17;2.40;;;;;;;6.66;86.07;102084.81;5011852;28;20204;-71
2021/10/23 02:57:20;;;;;;;7.60;2.67;;;;;;;6.67;85.82;102081.47;5012372;28;20207;-71
2021/10/23 02:59:45;;;;;;;10.70;2.10;;;;;;;6.69;86.16;102081.56;5010828;28;20648;-72
2021/10/23 03:02:10;;;;;;;9.33;2.07;;;;;;;6.72;85.48;102092.75;5012327;28;20261;-71
2021/10/23 03:04:36;;;;;;;6.63;1.90;;;;;;;6.75;85.33;102098.03;5010357;28;20681;-70
2021/10/23 03:07:01;;;;;;;10.40;2.27;;;;;;;6.76;85.72;102096.34;5012082;28;20254;-71
2021/10/23 03:09:26;;;;;;;10.13;2.53;;;;;;;6.77;85.96;102095.56;5011447;28;20566;-71
2021/10/23 03:11:52;;;;;;;12.07;2.17;;;;;;;6.78;85.98;102098.19;5010806;28;20659;-71
2021/10/23 03:14:17;;;;;;;8.93;2.20;;;;;;;6.80;85.53;102096.63;5011905;28;20207;-71
2021/10/23 03:16:42;;;;;;;9.93;2.67;;;;;;;6.81;85.98;102097.50;5012137;28;20581;-71
2021/10/23 03:19:08;;;;;;;8.57;1.60;;;;;;;6.83;85.61;102098.44;5010514;28;20223;-72
2021/10/23 03:21:33;;;;;;;15.07;1.97;;;;;;;6.81;86.34;102106.00;5011915;28;20195;-72
2021/10/23 03:23:58;;;;;;;11.40;2.27;;;;;;;6.82;86.32;102106.88;5011019;28;20211;-72
2021/10/23 03:26:24;;;;;;;11.23;1.93;;;;;;;6.79;85.63;102112.69;5011664;28;20242;-72
2021/10/23 03:28:49;;;;;;;11.60;1.90;;;;;;;6.79;85.86;102120.31;5010855;28;20274;-71
2021/10/23 03:31:14;;;;;;;11.27;2.20;;;;;;;6.81;86.43;102117.88;5011116;28;20747;-72
2021/10/23 03:33:40;;;;;;;8.77;1.90;;;;;;;6.80;85.82;102116.09;5010271;28;20585;-71
2021/10/23 03:36:05;;;;;;;12.03;2.07;;;;;;;6.80;85.59;102111.88;5010346;28;20202;-72
2021/10/23 03:38:31;;;;;;;7.27;1.83;;;;;;;6.79;85.98;102119.44;5010559;28;20219;-71
2021/10/23 03:40:57;;;;;;;9.43;2.67;;;;;;;6.72;85.67;102113.13;5011071;28;20269;-71
2021/10/23 03:43:23;;;;;;;8.87;2.50;;;;;;;6.69;85.85;102112.09;5011506;28;20215;-72
2021/10/23 03:45:48;;;;;;;10.27;2.37;;;;;;;6.61;85.77;102114.22;5011548;28;20191;-71
2021/10/23 03:48:16;;;;;;;7.97;2.13;;;;;;;6.53;86.19;102114.56;5010574;28;20965;-71
2021/10/23 03:50:41;;;;;;;9.30;1.80;;;;;;;6.48;85.73;102127.03;5011601;28;20203;-72
2021/10/23 03:53:07;;;;;;;11.40;2.30;;;;;;;6.43;85.89;102118.28;5010674;28;20211;-71
2021/10/23 03:55:32;;;;;;;6.60;1.90;;;;;;;6.39;87.04;102123.97;5007275;28;20270;-71
2021/10/23 03:57:58;;;;;;;11.40;2.40;;;;;;;6.34;86.46;102112.66;5011619;28;20211;-72
2021/10/23 04:00:23;;;;;;;11.27;1.63;;;;;;;6.32;86.66;102118.47;5010152;28;20258;-71
2021/10/23 04:02:48;;;;;;;13.17;2.27;;;;;;;6.25;86.92;102122.31;5011407;28;20298;-71
2021/10/23 04:05:14;;;;;;;11.83;2.73;;;;;;;6.22;86.69;102129.75;5010114;28;20191;-71
2021/10/23 04:07:39;;;;;;;11.70;2.30;;;;;;;6.16;87.74;102126.00;5011148;28;20266;-73
2021/10/23 04:10:06;;;;;;;11.93;2.60;;;;;;;6.16;87.19;102137.06;5011167;28;20194;-73
2021/10/23 04:12:31;;;;;;;10.27;1.93;;;;;;;6.17;87.19;102128.63;5010982;28;20659;-72
2021/10/23 04:14:59;;;;;;;11.23;2.10;;;;;;;6.20;87.03;102144.06;5011060;28;20270;-72
2021/10/23 04:17:24;;;;;;;12.43;1.80;;;;;;;6.24;87.31;102147.66;5010726;28;20302;-71
2021/10/23 04:19:50;;;;;;;13.17;2.10;;;;;;;6.25;87.05;102151.94;5010909;28;20315;-72
2021/10/23 04:22:15;;;;;;;10.57;2.60;;;;;;;6.24;87.16;102156.19;5010925;28;20187;-72
2021/10/23 04:24:40;;;;;;;7.57;2.30;;;;;;;6.29;87.32;102161.50;5010795;28;20237;-72
2021/10/23 04:27:06;;;;;;;10.90;2.03;;;;;;;6.31;87.04;102160.81;5010684;28;20183;-72
2021/10/23 04:29:31;;;;;;;8.30;1.73;;;;;;;6.35;87.23;102167.84;5011241;28;20683;-71
2021/10/23 04:31:57;;;;;;;9.17;2.10;;;;;;;6.35;87.76;102167.84;5009476;28;20683;-72
2021/10/23 04:34:22;;;;;;;10.17;1.90;;;;;;;6.36;87.43;102161.94;5010810;28;20211;-71
2021/10/23 04:36:47;;;;;;;10.43;2.17;;;;;;;6.40;87.72;102160.47;5006572;28;20207;-71
2021/10/23 04:39:14;;;;;;;9.57;2.10;;;;;;;6.40;87.69;102168.97;5010287;28;20218;-72
2021/10/23 04:41:39;;;;;;;10.70;2.13;;;;;;;6.44;87.00;102177.69;5009483;28;20191;-72
2021/10/23 04:44:05;;;;;;;12.07;2.00;;;;;;;6.43;86.90;102174.25;5010684;28;20203;-72
2021/10/23 04:46:30;;;;;;;12.53;2.70;;;;;;;6.39;87.27;102176.50;5010783;28;20210;-70
2021/10/23 04:48:55;;;;;;;9.70;2.27;;;;;;;6.37;87.46;102183.19;5010173;28;20214;-71
2021/10/23 04:51:21;;;;;;;12.27;2.40;;;;;;;6.35;87.87;102179.69;5010735;28;20195;-70
2021/10/23 04:53:46;;;;;;;9.43;2.10;;;;;;;6.30;88.32;102186.16;5008780;28;20240;-72
2021/10/23 04:56:11;;;;;;;7.23;1.80;;;;;;;6.27;87.92;102181.75;5009005;28;20199;-70
2021/10/23 04:58:40;;;;;;;9.70;1.90;;;;;;;6.30;88.46;102186.16;5010413;28;20215;-70
2021/10/23 05:01:06;;;;;;;8.13;2.57;;;;;;;6.25;88.14;102188.44;5010393;28;20222;-71
2021/10/23 05:03:31;;;;;;;10.80;2.80;;;;;;;6.23;88.09;102189.16;5008935;28;20253;-70
2021/10/23 05:05:57;;;;;;;9.67;2.57;;;;;;;6.23;88.24;102201.84;5010229;28;20191;-71
2021/10/23 05:08:23;;;;;;;6.30;1.97;;;;;;;6.25;87.88;102196.06;5008862;28;20202;-71
2021/10/23 05:10:49;;;;;;;8.90;2.00;;;;;;;6.25;87.89;102201.16;5010152;28;20668;-71
2021/10/23 05:13:14;;;;;;;12.80;2.20;;;;;;;6.25;87.97;102198.63;5009056;28;20203;-71
2021/10/23 05:15:40;;;;;;;10.23;1.93;;;;;;;6.21;87.60;102191.59;5010130;28;20764;-71
2021/10/23 05:18:05;;;;;;;13.50;2.23;;;;;;;6.18;88.15;102198.16;5010368;28;20214;-70
2021/10/23 05:20:31;;;;;;;9.57;2.17;;;;;;;6.13;87.68;102207.19;5010383;28;20179;-71
2021/10/23 05:22:56;;;;;;;17.33;2.83;;;;;;;6.09;88.03;102205.25;5010178;28;20222;-71
2021/10/23 05:25:22;;;;;;;12.33;2.33;;;;;;;6.07;88.19;102215.34;5010224;28;20194;-70
2021/10/23 05:27:47;;;;;;;10.60;2.47;;;;;;;6.07;88.19;102217.88;5010019;28;20226;-69
2021/10/23 05:30:12;;;;;;;14.43;2.93;;;;;;;6.12;87.60;102220.72;5010035;28;20187;-70
2021/10/23 05:32:38;;;;;;;11.57;2.47;;;;;;;6.14;88.22;102226.75;5009724;28;20586;-70
2021/10/23 05:35:03;;;;;;;7.33;2.00;;;;;;;6.13;88.11;102227.53;5009762;28;20656;-70
2021/10/23 05:37:29;;;;;;;12.53;2.13;;;;;;;6.11;88.09;102229.09;4991935;28;20870;-71
2021/10/23 05:39:54;;;;;;;13.03;2.13;;;;;;;6.12;88.67;102230.88;5009757;28;20197;-72
2021/10/23 05:42:20;;;;;;;14.97;2.90;;;;;;;6.12;88.16;102224.09;5009831;28;20192;-72
2021/10/23 05:44:45;;;;;;;10.67;2.10;;;;;;;6.14;87.70;102226.75;5009790;28;20195;-72
2021/10/23 05:47:10;;;;;;;8.80;2.33;;;;;;;6.15;87.94;102242.09;5008318;28;20214;-71
2021/10/23 05:49:36;;;;;;;10.00;2.30;;;;;;;6.17;88.21;102253.22;5009796;28;20184;-72
2021/10/23 05:52:01;;;;;;;10.60;2.30;;;;;;;6.17;87.50;102253.22;5009604;28;20227;-72
2021/10/23 05:54:27;;;;;;;7.90;1.90;;;;;;;6.20;87.36;102258.50;5009199;28;20227;-72
2021/10/23 05:56:53;;;;;;;8.00;2.20;;;;;;;6.19;88.65;102254.22;5008638;28;20211;-71
2021/10/23 05:59:18;;;;;;;12.13;2.23;;;;;;;6.20;88.50;102252.53;5009675;28;20227;-73
2021/10/23 06:01:45;;;;;;;10.27;2.57;;;;;;;6.19;88.51;102256.75;4993892;28;20250;-72
2021/10/23 06:04:11;;;;;;;7.73;2.03;;;;;;;6.17;88.88;102265.94;5009736;28;20245;-72
2021/10/23 06:06:40;;;;;;;9.33;2.37;;;;;;;6.10;88.36;102263.84;5008969;28;20187;-71
2021/10/23 06:09:05;;;;;;;6.20;1.87;;;;;;;6.09;88.33;102269.72;5012407;28;20196;-70
2021/10/23 06:11:31;;;;;;;12.93;2.20;;;;;;;6.12;88.16;102277.50;5009924;28;20216;-70
2021/10/23 06:13:58;;;;;;;11.43;1.83;;;;;;;6.13;88.83;102273.31;5004845;28;20226;-71
2021/10/23 06:16:24;;;;;;;9.97;2.20;;;;;;;6.12;87.95;102277.50;5007600;28;20203;-71
2021/10/23 06:18:49;;;;;;;9.77;1.50;;;;;;;6.12;88.03;102296.97;5005130;28;20207;-70
2021/10/23 06:21:15;;;;;;;8.63;2.07;;;;;;;6.13;87.79;102299.59;5007039;28;20195;-71
2021/10/23 06:23:41;;;;;;;8.93;2.07;;;;;;;6.11;87.60;102306.25;5009580;28;20211;-71
2021/10/23 06:26:06;;;;;;;9.23;2.33;;;;;;;6.09;87.78;102297.69;4972767;28;20329;-71
2021/10/23 06:28:36;;;;;;;9.97;2.70;;;;;;;6.14;87.93;102296.28;5015915;28;20187;-72
2021/10/23 06:31:05;;;;;;;9.20;2.30;;;;;;;6.13;88.63;102312.31;5009886;28;20207;-72
2021/10/23 06:33:30;;;;;;;10.60;2.60;;;;;;;6.11;88.21;102307.91;5005727;28;20291;-70
2021/10/23 06:35:56;;;;;;;14.53;2.87;;;;;;;6.16;88.12;102317.59;5006264;28;20662;-71
2021/10/23 06:38:21;;;;;;;10.57;2.10;;;;;;;6.17;88.75;102311.72;5004417;28;20223;-71
2021/10/23 06:40:46;;;;;;;9.90;2.40;;;;;;;6.16;88.35;102317.59;5004019;28;20210;-71
2021/10/23 06:43:12;;;;;;;14.70;3.10;;;;;;;6.20;88.17;102331.34;5012626;28;20199;-72
2021/10/23 06:45:38;;;;;;;11.57;2.40;;;;;;;6.25;88.78;102343.56;5007011;28;20196;-72
2021/10/23 06:48:04;;;;;;;9.70;2.43;;;;;;;6.33;89.05;102344.91;5011385;28;20233;-71
2021/10/23 06:50:29;;;;;;;10.23;1.80;;;;;;;6.36;88.66;102350.16;5007286;28;20580;-70
2021/10/23 06:52:54;;;;;;;9.00;1.87;;;;;;;6.42;88.57;102349.66;5010551;28;20627;-72
2021/10/23 06:55:20;;;;;;;7.27;2.23;;;;;;;6.55;87.98;102358.16;5008692;28;20235;-71
2021/10/23 06:57:46;;;;;;;13.27;3.90;;;;;;;6.73;86.79;102359.19;5010979;28;20203;-71
2021/10/23 07:00:12;;;;;;;10.20;2.83;;;;;;;6.83;86.80;102361.53;5006139;28;20196;-72
2021/10/23 07:02:40;;;;;;;12.10;2.30;;;;;;;6.95;86.65;102377.50;5007987;28;20282;-72
2021/10/23 07:05:09;;;;;;;9.93;2.37;;;;;;;6.96;86.15;102376.69;5010935;28;20278;-72
2021/10/23 07:07:34;;;;;;;10.67;2.00;;;;;;;7.03;87.13;102377.94;5010184;28;20211;-71
2021/10/23 07:09:59;;;;;;;8.90;2.13;;;;;;;7.06;86.60;102384.09;4997814;28;20278;-71
2021/10/23 07:12:25;;;;;;;10.67;2.37;;;;;;;7.04;86.34;102389.91;5011062;28;20215;-71
2021/10/23 07:14:50;;;;;;;10.30;2.17;;;;;;;7.09;86.48;102406.31;5012179;28;20246;-71
2021/10/23 07:17:16;;;;;;;10.60;3.47;;;;;;;7.18;86.48;102406.88;5010515;28;20175;-70
2021/10/23 07:19:41;;;;;;;11.57;2.90;;;;;;;7.15;86.48;102405.03;5011932;28;20659;-71
2021/10/23 07:22:06;;;;;;;8.63;1.80;;;;;;;7.18;85.77;102414.50;5010941;28;20679;-71
2021/10/23 07:24:31;;;;;;;11.80;2.33;;;;;;;7.20;86.66;102421.44;5011780;28;20211;-71
2021/10/23 07:26:57;;;;;;;10.20;2.53;;;;;;;7.29;86.56;102419.44;5011911;28;20605;-71
2021/10/23 07:29:22;;;;;;;11.53;3.30;;;;;;;7.37;85.47;102424.97;5012062;28;20914;-71
2021/10/23 07:31:47;;;;;;;13.47;2.60;;;;;;;7.45;85.71;102431.34;5011834;28;20607;-71
2021/10/23 07:34:13;;;;;;;8.80;1.83;;;;;;;7.49;85.31;102431.63;5011925;28;20219;-71
2021/10/23 07:36:38;;;;;;;8.43;2.13;;;;;;;7.52;85.94;102431.81;5010019;28;20188;-71
2021/10/23 07:39:03;;;;;;;8.93;2.23;;;;;;;7.48;85.42;102437.53;5010497;28;20200;-71
2021/10/23 07:41:29;;;;;;;10.33;2.27;;;;;;;7.47;85.33;102438.28;5011176;28;20203;-71
2021/10/23 07:43:54;;;;;;;10.13;2.00;;;;;;;7.63;85.42;102446.03;5011886;28;20212;-71
2021/10/23 07:46:19;;;;;;;14.70;2.93;;;;;;;7.70;84.31;102444.72;5010952;28;20262;-71
2021/10/23 07:48:45;;;;;;;10.40;2.63;;;;;;;7.70;84.07;102457.47;5010901;28;20183;-71
2021/10/23 07:51:12;;;;;;;9.57;2.40;;;;;;;7.75;84.27;102459.47;5010865;28;20190;-71
2021/10/23 07:53:37;;;;;;;12.00;3.17;;;;;;;8.14;83.11;102454.03;5011159;28;20234;-71
2021/10/23 07:56:03;;;;;;;10.73;2.40;;;;;;;8.39;82.48;102459.69;5011321;28;20195;-71
2021/10/23 07:58:30;;;;;;;10.10;2.27;;;;;;;8.51;82.39;102469.69;5011430;28;20212;-71
2021/10/23 08:00:55;;;;;;;13.80;2.73;;;;;;;8.71;81.17;102464.84;5011034;28;20269;-71
2021/10/23 08:03:23;;;;;;;14.13;2.83;;;;;;;8.78;81.07;102477.16;5011119;28;20261;-71
2021/10/23 08:05:48;;;;;;;11.43;2.80;;;;;;;9.04;79.81;102486.16;5011160;28;20183;-71
2021/10/23 08:08:13;;;;;;;10.70;2.83;;;;;;;9.13;80.32;102490.06;5011288;28;20648;-71
2021/10/23 08:10:39;;;;;;;9.23;2.23;;;;;;;9.23;78.76;102484.63;5010720;28;20656;-71
2021/10/23 08:13:04;;;;;;;9.73;2.37;;;;;;;9.49;78.59;102491.91;5010657;28;20265;-71
2021/10/23 08:15:31;;;;;;;7.40;1.83;;;;;;;9.66;77.49;102496.19;5010778;28;20186;-71
2021/10/23 08:18:03;;;;;;;7.93;2.00;;;;;;;9.74;76.97;102500.03;5010871;28;20256;-71
2021/10/23 08:20:33;;;;;;;10.23;2.60;;;;;;;10.06;76.81;102511.84;5011021;28;20265;-71
2021/10/23 08:23:00;;;;;;;8.93;2.20;;;;;;;10.57;75.33;102509.16;5010577;28;20215;-71
2021/10/23 08:25:25;;;;;;;8.83;2.40;;;;;;;10.89;73.41;102512.41;5010057;28;20194;-70
2021/10/23 08:27:51;;;;;;;9.30;2.30;;;;;;;11.13;72.83;102510.03;5010480;28;20886;-71
2021/10/23 08:30:19;;;;;;;5.97;2.23;;;;;;;11.47;71.44;102493.59;5010372;28;20256;-71
2021/10/23 08:32:46;;;;;;;8.83;2.27;;;;;;;10.46;73.60;102505.25;5010556;28;20703;-71
2021/10/23 08:35:16;;;;;;;9.57;3.03;;;;;;;10.62;74.14;102510.25;5010442;28;20214;-71
2021/10/23 08:37:42;;;;;;;9.10;3.03;;;;;;;11.38;71.50;102505.16;5010606;28;20207;-71
2021/10/23 08:40:09;;;;;;;8.33;2.40;;;;;;;12.09;69.21;102498.75;5006404;28;20222;-72
2021/10/23 08:42:35;;;;;;;6.37;1.93;;;;;;;11.90;69.81;102504.81;5007373;28;20903;-72
2021/10/23 08:45:03;;;;;;;7.93;2.10;;;;;;;11.28;70.75;102524.38;5010000;28;20189;-72
2021/10/23 08:47:29;;;;;;;7.00;2.57;;;;;;;11.05;72.53;102530.19;5009910;28;20241;-71
2021/10/23 08:49:58;;;;;;;8.07;2.20;;;;;;;10.95;72.82;102524.59;5009979;28;20229;-72
2021/10/23 08:52:27;;;;;;;6.43;2.07;;;;;;;12.69;67.46;102520.00;5009866;28;20269;-73
2021/10/23 08:54:52;;;;;;;4.83;2.50;;;;;;;13.61;64.08;102513.06;5009823;28;20202;-73
2021/10/23 08:57:18;;;;;;;9.87;2.67;;;;;;;13.98;63.51;102517.72;5008297;28;20176;-72
2021/10/23 08:59:44;;;;;;;5.53;1.90;;;;;;;19.56;47.19;102502.25;4990423;28;20271;-74
2021/10/23 09:02:10;;;;;;;8.17;2.07;;;;;;;15.30;56.53;102525.25;4990256;28;20275;-74
2021/10/23 09:04:37;;;;;;;5.13;1.83;;;;;;;12.99;63.71;102540.88;4990564;28;20290;-73
2021/10/23 09:07:11;;;;;;;7.50;1.90;;;;;;;11.80;67.41;102546.34;4990348;28;20744;-73
2021/10/23 09:10:00;;;;;;;5.07;1.90;;;;;;;15.58;58.32;102535.50;5006159;28;20194;-72
2021/10/23 09:12:31;;;;;;;5.93;1.90;;;;;;;19.49;47.10;102515.19;5009674;28;20187;-73
2021/10/23 09:15:11;;;;;;;4.47;2.10;;;;;;;20.46;43.31;102525.53;5009679;28;20194;-73
2021/10/23 09:17:39;;;;;;;4.93;2.20;;;;;;;22.33;39.87;102522.50;5009521;28;20643;-73
2021/10/23 09:20:10;;;;;;;5.70;2.17;;;;;;;22.53;39.03;102515.56;5009410;28;20191;-73
2021/10/23 09:22:39;;;;;;;6.82;2.45;;;;;;;23.93;36.67;102515.66;5008255;28;20558;-73
2021/10/23 09:25:24;;;;;;;8.30;2.20;;;;;;;21.39;41.77;102536.38;5009571;28;20207;-73
2021/10/23 09:28:04;;;;;;;7.90;2.23;;;;;;;16.63;51.81;102556.19;5009578;28;20250;-72
2021/10/23 09:30:41;;;;;;;7.93;2.03;;;;;;;16.92;53.22;102560.31;5001880;28;20684;-72
2021/10/23 09:33:14;;;;;;;8.73;2.57;;;;;;;19.15;48.57;102539.00;5008960;28;20218;-71
2021/10/23 09:35:44;;;;;;;5.10;2.43;;;;;;;19.94;44.31;102537.25;5008234;28;20200;-72
2021/10/23 09:38:12;;;;;;;5.97;2.20;;;;;;;20.80;42.59;102541.34;5008888;28;20215;-70
2021/10/23 09:40:40;;;;;;;6.67;2.57;;;;;;;22.89;39.61;102523.28;5009159;28;20642;-72
2021/10/23 09:43:22;;;;;;;4.93;2.25;;;;;;;24.64;36.27;102528.09;5007283;28;20277;-72
2021/10/23 09:46:02;;;;;;;5.70;2.90;;;;;;;22.79;38.92;102537.22;5005189;28;20641;-71
2021/10/23 09:48:39;;;;;;;5.32;2.67;;;;;;;23.95;36.60;102532.25;5008340;28;20210;-71
2021/10/23 09:51:12;;;;;;;4.65;2.42;;;;;;;24.27;35.01;102532.78;5004424;28;20922;-71
2021/10/23 09:53:38;;;;;;;6.05;2.60;;;;;;;24.82;35.32;102528.72;5004253;28;20218;-71
2021/10/23 09:56:07;;;;;;;6.22;2.90;;;;;;;24.15;36.03;102526.81;5008727;28;20230;-71
2021/10/23 09:58:33;;;;;;;5.85;2.58;;;;;;;25.06;34.46;102528.44;5008849;28;20243;-71
2021/10/23 10:00:58;;;;;;;4.63;2.30;;;;;;;25.35;34.30;102521.06;5008572;28;20230;-71
2021/10/23 10:03:28;;;;;;;4.90;2.40;;;;;;;26.06;33.99;102515.53;5006341;28;20241;-71
2021/10/23 10:05:55;;;;;;;4.45;2.10;;;;;;;24.96;33.96;102523.31;5009143;28;20530;-71
2021/10/23 10:08:21;;;;;;;5.47;2.72;;;;;;;25.47;33.34;102523.47;5009256;28;20857;-71
2021/10/23 10:10:48;;;;;;;5.25;2.90;;;;;;;25.18;34.96;102523.00;5009148;28;20191;-70
2021/10/23 10:13:18;;;;;;;6.40;2.80;;;;;;;25.97;32.90;102517.47;5008812;28;20575;-70
2021/10/23 10:15:45;;;;;;;6.32;2.70;;;;;;;26.28;32.68;102531.78;5009002;28;20649;-71
2021/10/23 10:18:14;;;;;;;6.20;2.90;;;;;;;26.70;31.90;102523.97;4989291;28;20792;-70
2021/10/23 10:20:43;;;;;;;4.07;2.50;;;;;;;27.62;30.48;102527.22;4989424;28;20250;-71
2021/10/23 10:23:10;;;;;;;4.03;2.45;;;;;;;27.01;31.34;102519.81;4988060;28;20204;-71
2021/10/23 10:25:38;;;;;;;6.25;2.50;;;;;;;27.26;32.06;102526.31;4989657;28;20676;-71
2021/10/23 10:28:13;;;;;;;7.00;2.42;;;;;;;26.98;32.37;102534.81;4989785;28;20180;-71
2021/10/23 10:30:42;;;;;;;2.83;2.00;;;;;;;26.74;31.21;102522.16;4995999;28;20237;-71
2021/10/23 10:33:29;;;;;;;6.40;2.20;;;;;;;27.81;31.36;102525.94;5006679;28;20215;-71
2021/10/23 10:38:59;;;;;;;4.78;2.05;;;;;;;27.74;30.48;102533.06;5009152;28;20257;-73
2021/10/23 10:44:12;;;;;;;4.90;2.15;;;;;;;27.98;29.80;102536.88;5009160;28;20239;-71
2021/10/23 10:47:04;;;;;;;5.70;2.33;;;;;;;27.61;29.98;102547.44;5009106;28;20172;-71
2021/10/23 10:49:50;;;;;;;4.95;2.20;;;;;;;27.42;29.85;102546.13;5012667;28;20272;-71
2021/10/23 10:52:40;;;;;;;5.40;2.45;;;;;;;28.23;29.04;102545.91;4993239;28;20263;-71
2021/10/23 10:55:24;;;;;;;6.70;1.85;;;;;;;27.38;30.05;102554.13;4992940;28;20198;-71
2021/10/23 10:58:06;;;;;;;3.05;1.83;;;;;;;24.68;33.76;102561.25;4992788;28;20270;-71
2021/10/23 11:00:47;;;;;;;5.22;2.00;;;;;;;25.79;32.46;102567.63;4995540;28;20314;-71
2021/10/23 11:03:32;;;;;;;8.02;2.20;;;;;;;26.02;32.35;102568.16;5011782;28;20218;-71
2021/10/23 11:06:36;;;;;;;4.35;1.90;;;;;;;26.26;32.43;102567.75;5006504;28;20191;-71
2021/10/23 11:09:10;;;;;;;6.63;1.90;;;;;;;24.94;32.52;102567.91;5012161;28;20233;-72
2021/10/23 11:11:45;;;;;;;5.35;2.38;;;;;;;25.61;32.25;102567.91;5012382;28;20186;-71
2021/10/23 11:14:20;;;;;;;4.90;1.90;;;;;;;25.44;31.84;102567.28;5012105;28;20237;-71
2021/10/23 11:16:55;;;;;;;8.32;2.35;;;;;;;25.31;31.74;102576.19;5010412;28;20229;-71
2021/10/23 11:19:38;;;;;;;9.05;2.30;;;;;;;24.63;33.13;102578.78;5012188;28;20707;-71
2021/10/23 11:22:07;;;;;;;5.05;1.90;;;;;;;23.47;35.57;102584.88;5012409;28;20181;-71
2021/10/23 11:25:03;;;;;;;4.10;1.80;;;;;;;23.85;35.40;102585.50;5011928;28;20291;-71
2021/10/23 11:27:30;;;;;;;5.38;1.90;;;;;;;21.18;40.37;102606.66;5011848;28;20518;-71
2021/10/23 11:30:15;;;;;;;5.10;2.03;;;;;;;22.65;38.28;102601.69;5011725;28;20238;-71
2021/10/23 11:32:46;;;;;;;6.68;2.40;;;;;;;22.97;36.66;102601.66;5011326;28;20187;-71
2021/10/23 11:35:12;;;;;;;5.35;2.05;;;;;;;23.01;37.01;102600.75;5011695;28;20270;-71